Time;durP1;ratioP1;P1;durP2;ratioP2;P2;SDS_P1;SDS_P2;PMS_P1;PMS_P2;Temp;Humidity;BMP_temperature;BMP_pressure;BME280_temperature;BME280_humidity;BME280_pressure;Samples;Min_cycle;Max_cycle;Signal;HPM_P1;HPM_P2
2023/05/12 00:00:56;;;;;;;13.60;5.22;;;;;;;17.76;100.00;101162.34;2111029;28;20052;-71
2023/05/12 00:02:18;;;;;;;14.73;5.30;;;;;;;17.77;100.00;101164.13;2102562;28;20502;-71
2023/05/12 00:03:40;;;;;;;14.88;5.18;;;;;;;17.79;100.00;101165.00;2108382;28;20453;-71
2023/05/12 00:05:04;;;;;;;14.32;5.55;;;;;;;17.77;100.00;101172.16;2097124;28;20058;-71
2023/05/12 00:06:27;;;;;;;13.82;4.78;;;;;;;17.75;100.00;101169.47;2100308;28;20052;-71
2023/05/12 00:07:49;;;;;;;17.15;5.45;;;;;;;17.73;100.00;101170.38;2102247;28;20070;-71
2023/05/12 00:09:12;;;;;;;15.75;6.18;;;;;;;17.72;100.00;101163.28;2099686;28;20036;-71
2023/05/12 00:10:38;;;;;;;12.00;4.75;;;;;;;17.72;100.00;101168.63;2102986;28;20781;-71
2023/05/12 00:12:02;;;;;;;14.30;5.28;;;;;;;17.71;100.00;101166.84;2102644;28;20040;-72
2023/05/12 00:13:24;;;;;;;21.67;5.50;;;;;;;17.71;100.00;101161.50;2108021;28;20459;-71
2023/05/12 00:14:47;;;;;;;16.98;5.18;;;;;;;17.72;100.00;101165.97;2109186;28;20044;-71
2023/05/12 00:16:11;;;;;;;12.95;5.13;;;;;;;17.70;100.00;101167.75;2102666;28;20052;-71
2023/05/12 00:17:36;;;;;;;14.30;5.20;;;;;;;17.68;100.00;101158.84;2110568;28;20043;-71
2023/05/12 00:18:57;;;;;;;18.88;5.60;;;;;;;17.69;100.00;101165.97;2109948;28;20050;-72
2023/05/12 00:20:21;;;;;;;19.38;5.18;;;;;;;17.69;100.00;101169.53;2097365;28;20044;-71
2023/05/12 00:21:44;;;;;;;15.25;5.35;;;;;;;17.70;100.00;101170.41;2102324;28;20405;-71
2023/05/12 00:23:06;;;;;;;17.35;5.38;;;;;;;17.72;100.00;101171.31;2102242;28;20062;-71
2023/05/12 00:24:29;;;;;;;14.10;5.40;;;;;;;17.72;100.00;101169.50;2108458;28;20048;-71
2023/05/12 00:25:53;;;;;;;16.17;5.25;;;;;;;17.72;100.00;101169.50;2108835;28;20081;-71
2023/05/12 00:27:16;;;;;;;12.95;4.97;;;;;;;17.71;100.00;101170.41;2106888;28;20046;-71
2023/05/12 00:28:39;;;;;;;15.10;5.53;;;;;;;17.72;100.00;101163.28;2102508;28;20085;-72
2023/05/12 00:30:01;;;;;;;16.73;5.35;;;;;;;17.71;100.00;101164.19;2104973;28;20055;-71
2023/05/12 00:31:26;;;;;;;13.95;5.05;;;;;;;17.70;100.00;101165.06;2105782;28;20826;-71
2023/05/12 00:32:48;;;;;;;17.27;5.35;;;;;;;17.70;100.00;101163.28;2113028;28;20051;-71
2023/05/12 00:34:13;;;;;;;13.48;5.65;;;;;;;17.71;100.00;101166.84;2102222;28;20125;-71
2023/05/12 00:35:36;;;;;;;16.95;4.95;;;;;;;17.73;100.00;101162.38;2103400;28;20046;-71
2023/05/12 00:36:57;;;;;;;16.23;5.70;;;;;;;17.74;100.00;101167.72;2110005;28;20043;-71
2023/05/12 00:38:19;;;;;;;17.40;6.00;;;;;;;17.72;100.00;101168.63;2097795;28;20049;-72
2023/05/12 00:39:41;;;;;;;17.70;5.20;;;;;;;17.71;100.00;101175.75;2104074;28;20119;-71
2023/05/12 00:41:04;;;;;;;17.67;5.78;;;;;;;17.70;100.00;101168.63;2110244;28;20047;-71
2023/05/12 00:42:33;;;;;;;15.52;5.50;;;;;;;17.70;100.00;101165.97;2107533;28;20521;-71
2023/05/12 00:43:56;;;;;;;17.05;5.30;;;;;;;17.71;100.00;101166.84;2105779;28;20055;-72
2023/05/12 00:45:21;;;;;;;16.00;5.20;;;;;;;17.68;100.00;101166.88;2096575;28;20072;-71
2023/05/12 00:46:45;;;;;;;15.30;5.05;;;;;;;17.69;100.00;101169.53;2106816;28;20078;-71
2023/05/12 00:48:11;;;;;;;16.33;5.38;;;;;;;17.69;100.00;101176.66;2110452;28;20049;-71
2023/05/12 00:49:32;;;;;;;15.85;4.93;;;;;;;17.69;100.00;101172.19;2106469;28;20491;-71
2023/05/12 00:50:57;;;;;;;16.30;4.93;;;;;;;17.68;100.00;101172.19;2112180;28;20047;-71
2023/05/12 00:52:19;;;;;;;18.30;5.72;;;;;;;17.66;100.00;101174.88;2113046;28;20043;-71
2023/05/12 00:53:43;;;;;;;13.55;5.35;;;;;;;17.66;100.00;101166.88;2111026;28;20036;-71
2023/05/12 00:55:05;;;;;;;16.02;5.45;;;;;;;17.67;100.00;101167.75;2110919;28;20109;-72
2023/05/12 00:56:27;;;;;;;;;;;;;;;17.63;100.00;101166.00;2101740;28;20086;-71
2023/05/12 00:57:50;;;;;;;11.95;4.90;;;;;;;17.62;100.00;101165.13;2099872;28;20478;-71
2023/05/12 00:59:14;;;;;;;15.35;5.18;;;;;;;17.61;100.00;101175.81;2095809;28;20064;-71
2023/05/12 01:00:37;;;;;;;12.73;4.50;;;;;;;17.58;100.00;101167.81;2088107;28;20143;-71
2023/05/12 01:02:00;;;;;;;12.27;4.60;;;;;;;17.57;100.00;101163.34;2113439;27;20090;-72
2023/05/12 01:03:23;;;;;;;17.27;5.55;;;;;;;17.57;100.00;101168.69;2107477;28;20072;-71
2023/05/12 01:04:44;;;;;;;14.27;5.07;;;;;;;17.56;100.00;101159.78;2099537;28;20726;-71
2023/05/12 01:06:11;;;;;;;;;;;;;;;17.52;100.00;101158.91;2096568;28;20052;-71
2023/05/12 01:07:35;;;;;;;12.13;4.95;;;;;;;17.49;100.00;101158.06;2094979;28;20490;-71
2023/05/12 01:09:09;;;;;;;15.35;5.15;;;;;;;17.48;100.00;101165.19;2105928;28;20065;-71
2023/05/12 01:10:33;;;;;;;12.27;4.20;;;;;;;17.48;100.00;101153.63;2102104;28;20118;-71
2023/05/12 01:11:55;;;;;;;11.98;4.65;;;;;;;17.49;100.00;101156.28;2094127;28;20048;-71
2023/05/12 01:13:17;;;;;;;17.60;4.97;;;;;;;17.48;100.00;101162.50;2109478;28;20040;-71
2023/05/12 01:14:41;;;;;;;12.93;4.85;;;;;;;17.50;100.00;101163.41;2110601;28;20075;-71
2023/05/12 01:16:07;;;;;;;13.68;4.93;;;;;;;17.46;100.00;101158.94;2097820;28;20226;-72
2023/05/12 01:17:32;;;;;;;13.52;4.70;;;;;;;17.43;100.00;101161.66;2101752;28;20063;-71
2023/05/12 01:18:57;;;;;;;12.35;4.78;;;;;;;17.40;100.00;101161.66;2102017;28;20043;-71
2023/05/12 01:20:21;;;;;;;17.38;4.72;;;;;;;17.37;100.00;101163.47;2108409;28;20411;-71
2023/05/12 01:21:44;;;;;;;11.63;4.10;;;;;;;17.33;100.00;101159.91;2109837;28;20548;-71
2023/05/12 01:23:07;;;;;;;14.63;4.47;;;;;;;17.32;100.00;101152.84;2108651;28;20419;-71
2023/05/12 01:24:31;;;;;;;;;;;;;;;17.31;100.00;101158.19;2098581;28;20045;-71
2023/05/12 01:25:56;;;;;;;13.45;4.63;;;;;;;17.30;100.00;101154.63;2102178;28;19920;-72
2023/05/12 01:27:21;;;;;;;12.65;4.63;;;;;;;17.34;100.00;101155.47;2102422;28;20044;-71
2023/05/12 01:28:45;;;;;;;11.30;4.22;;;;;;;17.36;100.00;101153.69;2111294;28;20040;-72
2023/05/12 01:30:09;;;;;;;14.68;4.50;;;;;;;17.37;100.00;101159.03;2101083;28;20044;-72
2023/05/12 01:31:32;;;;;;;14.23;5.07;;;;;;;17.37;100.00;101153.69;2105865;28;20032;-71
2023/05/12 01:32:55;;;;;;;15.43;5.30;;;;;;;17.38;100.00;101151.91;2094504;28;20102;-71
2023/05/12 01:34:18;;;;;;;14.30;4.55;;;;;;;17.37;100.00;101151.03;2098579;28;20110;-72
2023/05/12 01:35:43;;;;;;;12.95;4.80;;;;;;;17.37;100.00;101150.13;2104967;28;20043;-71
2023/05/12 01:37:05;;;;;;;13.70;4.82;;;;;;;17.36;100.00;101149.25;2109032;28;20100;-72
2023/05/12 01:38:28;;;;;;;12.02;4.95;;;;;;;17.37;100.00;101152.81;2090470;28;20049;-71
2023/05/12 01:39:50;;;;;;;14.07;4.50;;;;;;;17.36;100.00;101153.69;2107623;28;20553;-71
2023/05/12 01:41:16;;;;;;;10.60;4.88;;;;;;;17.36;100.00;101153.69;2101631;28;20105;-71
2023/05/12 01:42:43;;;;;;;14.68;5.15;;;;;;;17.35;100.00;101146.56;2101389;28;20040;-71
2023/05/12 01:44:06;;;;;;;18.65;5.90;;;;;;;17.35;100.00;101147.47;2099961;28;20135;-71
2023/05/12 01:45:29;;;;;;;15.43;5.03;;;;;;;17.35;100.00;101146.56;2097283;28;20044;-71
2023/05/12 01:46:52;;;;;;;9.50;4.00;;;;;;;17.34;100.00;101150.13;2101183;28;20068;-71
2023/05/12 01:48:15;;;;;;;14.90;4.93;;;;;;;17.33;100.00;101157.25;2088133;28;20128;-71
2023/05/12 01:49:44;;;;;;;15.68;5.20;;;;;;;17.30;100.00;101149.28;2101339;28;20059;-71
2023/05/12 01:51:10;;;;;;;15.13;5.20;;;;;;;17.27;100.00;101146.63;2095013;28;20051;-71
2023/05/12 01:52:32;;;;;;;9.32;4.75;;;;;;;17.26;100.00;101147.53;2090491;28;20052;-71
2023/05/12 01:53:54;;;;;;;15.23;5.00;;;;;;;17.27;100.00;101145.72;2091036;28;20499;-71
2023/05/12 01:55:17;;;;;;;14.73;5.00;;;;;;;17.28;100.00;101150.16;2090352;28;20048;-71
2023/05/12 01:56:46;;;;;;;16.83;4.93;;;;;;;17.28;100.00;101151.06;2098563;28;20403;-71
2023/05/12 01:58:10;;;;;;;11.38;5.20;;;;;;;17.27;100.00;101154.63;2098964;28;20097;-71
2023/05/12 01:59:33;;;;;;;14.82;6.05;;;;;;;17.26;100.00;101144.88;2093268;28;20071;-71
2023/05/12 02:00:57;;;;;;;12.05;4.55;;;;;;;17.28;100.00;101151.06;2087689;28;20543;-71
2023/05/12 02:02:20;;;;;;;16.45;5.07;;;;;;;17.29;100.00;101146.63;2087542;28;20045;-71
2023/05/12 02:03:42;;;;;;;11.88;5.28;;;;;;;17.27;100.00;101154.63;2095983;28;20075;-71
2023/05/12 02:05:09;;;;;;;14.07;4.60;;;;;;;17.27;100.00;101151.94;2103262;28;20205;-71
2023/05/12 02:06:32;;;;;;;13.30;5.60;;;;;;;17.27;100.00;101151.94;2097873;28;20044;-71
2023/05/12 02:07:56;;;;;;;13.98;5.22;;;;;;;17.29;100.00;101150.16;2105103;28;20062;-71
2023/05/12 02:09:18;;;;;;;13.48;4.38;;;;;;;17.30;100.00;101151.94;2101888;28;20037;-71
2023/05/12 02:10:41;;;;;;;13.07;4.90;;;;;;;17.30;100.00;101148.38;2101469;28;20036;-71
2023/05/12 02:12:03;;;;;;;11.38;4.55;;;;;;;17.31;100.00;101152.84;2098721;28;20048;-71
2023/05/12 02:13:28;;;;;;;17.98;5.47;;;;;;;17.29;100.00;101142.16;2098755;28;20040;-71
2023/05/12 02:14:50;;;;;;;17.80;5.63;;;;;;;17.30;100.00;101151.06;2104160;28;20047;-71
2023/05/12 02:16:13;;;;;;;;;;;;;;;17.27;100.00;101151.06;2096434;28;20049;-71
2023/05/12 02:17:35;;;;;;;13.68;5.30;;;;;;;17.24;100.00;101152.00;2096595;28;19973;-72
2023/05/12 02:19:00;;;;;;;11.23;5.15;;;;;;;17.23;100.00;101160.88;2094107;28;20052;-71
2023/05/12 02:20:22;;;;;;;11.27;4.45;;;;;;;17.25;100.00;101155.53;2099133;28;20043;-71
2023/05/12 02:21:46;;;;;;;10.10;4.80;;;;;;;17.23;100.00;101152.88;2090369;28;20044;-71
2023/05/12 02:23:08;;;;;;;11.35;4.53;;;;;;;17.21;100.00;101152.00;2099392;28;20044;-72
2023/05/12 02:24:30;;;;;;;14.90;4.85;;;;;;;17.22;100.00;101155.53;2098816;28;20048;-71
2023/05/12 02:25:52;;;;;;;13.10;5.05;;;;;;;17.21;100.00;101154.66;2093241;28;20586;-71
2023/05/12 02:27:13;;;;;;;10.18;4.45;;;;;;;17.20;100.00;101152.88;2093421;28;20138;-71
2023/05/12 02:28:37;;;;;;;13.70;4.85;;;;;;;17.21;100.00;101168.00;2107509;28;20035;-71
2023/05/12 02:29:59;;;;;;;15.23;4.82;;;;;;;17.19;100.00;101155.56;2108115;28;20065;-71
2023/05/12 02:31:21;;;;;;;12.80;4.68;;;;;;;17.18;100.00;101164.47;2099448;28;20051;-71
2023/05/12 02:32:43;;;;;;;13.63;4.28;;;;;;;17.15;100.00;101154.69;2091080;28;20111;-71
2023/05/12 02:34:05;;;;;;;10.75;4.43;;;;;;;17.15;100.00;101165.38;2099233;28;20127;-71
2023/05/12 02:35:28;;;;;;;13.57;4.72;;;;;;;17.17;100.00;101163.59;2102025;28;20189;-72
2023/05/12 02:36:50;;;;;;;14.48;4.60;;;;;;;17.18;100.00;101165.38;2107974;28;20123;-71
2023/05/12 02:38:12;;;;;;;14.70;4.65;;;;;;;17.19;100.00;101156.47;2101275;28;20118;-72
2023/05/12 02:39:35;;;;;;;10.95;4.80;;;;;;;17.20;100.00;101160.03;2098728;28;20056;-71
2023/05/12 02:40:58;;;;;;;12.70;5.15;;;;;;;17.21;100.00;101151.09;2109081;28;20043;-71
2023/05/12 02:42:20;;;;;;;12.52;5.05;;;;;;;17.19;100.00;101167.13;2107135;28;20070;-71
2023/05/12 02:43:44;;;;;;;13.43;5.47;;;;;;;17.18;100.00;101167.13;2100598;28;20389;-71
2023/05/12 02:45:07;;;;;;;12.05;4.53;;;;;;;17.15;100.00;101162.69;2097874;28;20048;-71
2023/05/12 02:46:30;;;;;;;9.10;4.60;;;;;;;17.13;100.00;101153.84;2096385;28;20128;-71
2023/05/12 02:47:52;;;;;;;14.35;5.40;;;;;;;17.12;100.00;101166.28;2106975;28;20078;-71
2023/05/12 02:49:14;;;;;;;14.77;5.18;;;;;;;17.09;100.00;101168.06;2109649;28;20039;-71
2023/05/12 02:50:37;;;;;;;11.68;4.30;;;;;;;17.09;100.00;101160.94;2102508;28;20519;-71
2023/05/12 02:51:59;;;;;;;12.52;4.57;;;;;;;17.06;100.00;101171.66;2099358;28;20048;-71
2023/05/12 02:53:21;;;;;;;13.57;4.68;;;;;;;17.03;100.00;101163.66;2095576;28;20120;-71
2023/05/12 02:54:43;;;;;;;10.57;4.38;;;;;;;17.00;100.00;101170.78;2099227;28;20056;-71
2023/05/12 02:56:07;;;;;;;13.82;4.18;;;;;;;16.95;100.00;101159.22;2112513;28;22062;-71
2023/05/12 02:57:32;;;;;;;16.20;4.43;;;;;;;16.92;100.00;101161.94;2103649;28;20047;-71
2023/05/12 02:58:57;;;;;;;11.77;4.60;;;;;;;16.88;100.00;101161.03;2108433;28;20055;-71
2023/05/12 03:00:22;;;;;;;16.30;4.30;;;;;;;16.85;100.00;101161.06;2102936;28;20044;-71
2023/05/12 03:01:45;;;;;;;15.43;4.88;;;;;;;16.84;100.00;101163.72;2109128;28;20613;-71
2023/05/12 03:03:06;;;;;;;14.38;5.20;;;;;;;16.84;100.00;101169.06;2110500;28;20085;-71
2023/05/12 03:04:31;;;;;;;12.73;4.95;;;;;;;16.83;100.00;101162.84;2102792;28;20127;-71
2023/05/12 03:05:54;;;;;;;10.82;5.47;;;;;;;16.82;100.00;101170.84;2101289;28;20066;-71
2023/05/12 03:07:17;;;;;;;16.33;5.30;;;;;;;16.82;100.00;101169.06;2109022;28;20391;-71
2023/05/12 03:08:40;;;;;;;14.05;4.88;;;;;;;16.82;100.00;101168.16;2103424;28;20079;-71
2023/05/12 03:10:01;;;;;;;13.38;4.95;;;;;;;16.81;100.00;101171.72;2108395;28;20047;-71
2023/05/12 03:11:24;;;;;;;;;;;;;;;16.78;100.00;101174.41;2109788;27;20040;-72
2023/05/12 03:12:46;;;;;;;;;;;;;;;16.72;100.00;101172.66;2103259;28;19982;-72
2023/05/12 03:14:10;;;;;;;14.45;4.60;;;;;;;16.70;100.00;101171.75;2102148;28;20035;-71
2023/05/12 03:15:32;;;;;;;12.25;5.05;;;;;;;16.69;100.00;101183.31;2099531;28;20037;-70
2023/05/12 03:16:53;;;;;;;12.85;4.70;;;;;;;16.67;100.00;101182.47;2099534;28;20052;-72
2023/05/12 03:18:16;;;;;;;11.55;4.57;;;;;;;16.67;100.00;101193.97;2102827;28;20567;-71
2023/05/12 03:19:38;;;;;;;12.43;4.38;;;;;;;16.67;100.00;101187.78;2108010;28;20499;-71
2023/05/12 03:21:01;;;;;;;14.10;4.45;;;;;;;16.68;100.00;101190.44;2107475;28;20040;-71
2023/05/12 03:22:23;;;;;;;13.80;4.40;;;;;;;16.71;100.00;101197.53;2111302;28;20062;-71
2023/05/12 03:23:46;;;;;;;15.05;4.82;;;;;;;16.73;100.00;101193.09;2102933;28;20028;-71
2023/05/12 03:25:10;;;;;;;11.68;3.92;;;;;;;16.77;100.00;101193.97;2106236;28;20050;-71
2023/05/12 03:26:32;;;;;;;13.07;4.40;;;;;;;16.79;100.00;101194.84;2107074;28;20036;-71
2023/05/12 03:27:54;;;;;;;15.98;4.97;;;;;;;16.82;100.00;101194.84;2102458;28;20047;-71
2023/05/12 03:29:18;;;;;;;13.98;4.70;;;;;;;16.84;100.00;101196.63;2093932;28;20040;-71
2023/05/12 03:30:39;;;;;;;12.63;4.63;;;;;;;16.85;100.00;101193.06;2092705;28;20045;-72
2023/05/12 03:32:02;;;;;;;12.43;4.20;;;;;;;16.90;100.00;101204.59;2108809;28;20062;-71
2023/05/12 03:33:25;;;;;;;10.80;4.03;;;;;;;16.90;100.00;101195.69;2102333;28;20051;-71
2023/05/12 03:34:47;;;;;;;11.63;3.90;;;;;;;16.91;100.00;101198.38;2096824;28;20127;-71
2023/05/12 03:36:11;;;;;;;16.02;4.82;;;;;;;16.93;100.00;101190.38;2099730;28;20055;-71
2023/05/12 03:37:33;;;;;;;12.63;4.22;;;;;;;16.95;100.00;101202.78;2103315;27;20043;-71
2023/05/12 03:38:56;;;;;;;11.73;4.85;;;;;;;16.99;100.00;101203.69;2101666;28;20051;-71
2023/05/12 03:40:19;;;;;;;10.07;4.63;;;;;;;17.01;100.00;101204.53;2097137;28;20599;-71
2023/05/12 03:41:42;;;;;;;12.68;4.63;;;;;;;17.04;100.00;101212.56;2111067;28;20051;-71
2023/05/12 03:43:04;;;;;;;14.98;4.55;;;;;;;17.04;100.00;101210.78;2103122;28;20040;-71
2023/05/12 03:44:29;;;;;;;13.38;4.50;;;;;;;17.03;100.00;101211.66;2099860;28;20527;-71
2023/05/12 03:45:52;;;;;;;13.30;4.80;;;;;;;17.03;100.00;101213.44;2094495;28;20083;-71
2023/05/12 03:47:15;;;;;;;11.65;4.32;;;;;;;17.02;100.00;101217.88;2109040;27;20090;-71
2023/05/12 03:48:38;;;;;;;14.95;4.15;;;;;;;17.02;100.00;101233.00;2105189;28;20055;-71
2023/05/12 03:50:02;;;;;;;13.55;4.88;;;;;;;17.04;100.00;101220.56;2089348;28;20056;-71
2023/05/12 03:51:26;;;;;;;14.43;4.40;;;;;;;17.04;100.00;101218.78;2099761;28;20042;-71
2023/05/12 03:52:54;;;;;;;14.05;3.85;;;;;;;17.05;100.00;101223.22;2103361;28;20048;-71
2023/05/12 03:54:20;;;;;;;14.35;4.20;;;;;;;17.07;100.00;101232.09;2109717;28;20396;-71
2023/05/12 03:55:41;;;;;;;12.13;4.60;;;;;;;17.08;100.00;101228.53;2108933;28;20526;-71
2023/05/12 03:57:06;;;;;;;11.48;3.67;;;;;;;17.11;100.00;101216.97;2110643;28;20601;-71
2023/05/12 03:58:27;;;;;;;13.63;4.68;;;;;;;17.12;100.00;101221.41;2098482;28;20102;-71
2023/05/12 03:59:52;;;;;;;17.95;4.82;;;;;;;17.15;100.00;101224.06;2104854;28;20514;-71
2023/05/12 04:01:15;;;;;;;15.57;4.05;;;;;;;17.17;100.00;101227.63;2104267;28;20052;-71
2023/05/12 04:02:37;;;;;;;13.02;4.47;;;;;;;17.19;100.00;101230.28;2099333;28;20419;-71
2023/05/12 04:04:00;;;;;;;11.98;3.65;;;;;;;17.22;100.00;101220.47;2107354;28;20036;-71
2023/05/12 04:05:23;;;;;;;13.98;4.70;;;;;;;17.24;100.00;101228.47;2099350;28;20111;-70
2023/05/12 04:06:45;;;;;;;9.02;4.10;;;;;;;17.24;100.00;101237.38;2104131;28;20134;-71
2023/05/12 04:08:07;;;;;;;13.55;4.30;;;;;;;17.25;100.00;101228.47;2107036;28;20031;-71
2023/05/12 04:09:32;;;;;;;13.00;4.43;;;;;;;17.28;100.00;101230.22;2112464;28;20071;-71
2023/05/12 04:10:57;;;;;;;13.57;3.88;;;;;;;17.31;100.00;101230.22;2099558;28;20040;-71
2023/05/12 04:12:20;;;;;;;12.10;4.55;;;;;;;17.34;100.00;101235.53;2099959;28;20138;-71
2023/05/12 04:13:41;;;;;;;18.95;4.72;;;;;;;17.35;100.00;101231.97;2092890;28;20036;-71
2023/05/12 04:15:07;;;;;;;17.08;4.75;;;;;;;17.38;100.00;101238.22;2105195;28;20044;-71
2023/05/12 04:16:28;;;;;;;18.23;4.72;;;;;;;17.41;100.00;101237.28;2110973;28;20035;-71
2023/05/12 04:17:50;;;;;;;12.55;4.72;;;;;;;17.45;100.00;101239.97;2102001;28;20040;-71
2023/05/12 04:19:12;;;;;;;11.20;4.18;;;;;;;17.51;100.00;101239.03;2097909;28;20048;-71
2023/05/12 04:20:35;;;;;;;12.73;3.75;;;;;;;17.56;100.00;101236.34;2099422;28;20044;-72
2023/05/12 04:21:57;;;;;;;14.43;4.05;;;;;;;17.60;100.00;101235.41;2098379;28;20519;-71
2023/05/12 04:23:18;;;;;;;13.98;4.10;;;;;;;17.64;100.00;101229.22;2093684;28;20060;-71
2023/05/12 04:24:41;;;;;;;;;;;;;;;17.63;100.00;101235.44;2100187;28;20072;-71
2023/05/12 04:26:05;;;;;;;13.65;3.72;;;;;;;17.61;100.00;101240.78;2110398;28;20014;-72
2023/05/12 04:27:27;;;;;;;11.90;3.75;;;;;;;17.61;100.00;101238.09;2096482;28;20055;-71
2023/05/12 04:28:48;;;;;;;12.63;4.25;;;;;;;17.63;100.00;101233.66;2099915;28;20051;-72
2023/05/12 04:30:12;;;;;;;15.52;4.47;;;;;;;17.68;100.00;101241.63;2097367;28;20042;-71
2023/05/12 04:31:35;;;;;;;10.13;4.00;;;;;;;17.72;100.00;101236.25;2100492;28;20044;-71
2023/05/12 04:32:59;;;;;;;11.75;3.90;;;;;;;17.79;100.00;101238.00;2100333;28;20044;-71
2023/05/12 04:34:22;;;;;;;12.55;4.40;;;;;;;17.83;100.00;101246.88;2098972;28;20059;-72
2023/05/12 04:35:44;;;;;;;13.75;3.90;;;;;;;17.82;100.00;101239.78;2099932;28;20044;-71
2023/05/12 04:37:08;;;;;;;10.70;3.63;;;;;;;17.78;100.00;101235.34;2100172;28;20059;-71
2023/05/12 04:38:29;;;;;;;10.27;3.33;;;;;;;17.77;100.00;101241.59;2098967;28;20577;-72
2023/05/12 04:39:52;;;;;;;11.55;3.72;;;;;;;17.76;100.00;101246.03;2096691;28;20511;-71
2023/05/12 04:41:13;;;;;;;14.02;4.03;;;;;;;17.78;100.00;101248.72;2099374;28;20049;-72
2023/05/12 04:42:35;;;;;;;10.90;3.47;;;;;;;17.82;100.00;101246.00;2099346;28;20048;-71
2023/05/12 04:43:58;;;;;;;11.15;3.20;;;;;;;17.84;100.00;101246.00;2102403;28;20126;-70
2023/05/12 04:45:20;;;;;;;14.88;3.38;;;;;;;17.84;100.00;101243.31;2096896;28;20060;-71
2023/05/12 04:46:43;;;;;;;10.43;3.15;;;;;;;17.81;100.00;101254.00;2091981;28;20060;-71
2023/05/12 04:48:05;;;;;;;12.75;3.55;;;;;;;17.80;100.00;101254.91;2096377;28;20386;-71
2023/05/12 04:49:27;;;;;;;13.18;3.45;;;;;;;17.75;100.00;101243.38;2099287;28;20036;-71
2023/05/12 04:50:49;;;;;;;8.68;2.95;;;;;;;17.76;100.00;101253.16;2108089;28;20051;-71
2023/05/12 04:52:11;;;;;;;9.27;3.17;;;;;;;17.76;100.00;101250.50;2102031;28;20101;-71
2023/05/12 04:53:33;;;;;;;10.05;3.25;;;;;;;17.74;100.00;101253.16;2099997;28;20051;-71
2023/05/12 04:54:56;;;;;;;9.40;3.00;;;;;;;17.72;100.00;101246.09;2099304;28;20388;-71
2023/05/12 04:56:17;;;;;;;17.25;3.40;;;;;;;17.72;100.00;101260.28;2110251;28;20499;-71
2023/05/12 04:57:40;;;;;;;10.85;3.17;;;;;;;17.73;100.00;101261.19;2100253;28;20063;-71
2023/05/12 04:59:02;;;;;;;12.30;3.47;;;;;;;17.76;100.00;101264.75;2091293;28;20469;-71
2023/05/12 05:00:26;;;;;;;11.13;3.38;;;;;;;17.82;100.00;101261.13;2108170;28;20483;-71
2023/05/12 05:01:48;;;;;;;13.73;3.30;;;;;;;17.84;100.00;101254.91;2096477;28;20520;-72
2023/05/12 05:03:10;;;;;;;11.00;3.33;;;;;;;17.88;100.00;101253.09;2102952;28;20044;-72
2023/05/12 05:04:32;;;;;;;13.95;3.33;;;;;;;17.91;100.00;101270.00;2094890;28;20064;-71
2023/05/12 05:05:54;;;;;;;11.52;3.55;;;;;;;17.97;100.00;101261.06;2091199;28;20046;-71
2023/05/12 05:07:17;;;;;;;10.98;3.05;;;;;;;18.02;100.00;101269.03;2091185;28;20063;-71
2023/05/12 05:08:39;;;;;;;16.13;3.95;;;;;;;18.06;100.00;101268.09;2098197;28;20584;-71
2023/05/12 05:10:02;;;;;;;12.23;3.60;;;;;;;18.11;100.00;101263.63;2106428;28;20492;-71
2023/05/12 05:11:25;;;;;;;13.73;4.38;;;;;;;18.16;100.00;101268.03;2100657;28;20106;-71
2023/05/12 05:12:47;;;;;;;12.30;3.60;;;;;;;18.20;100.00;101269.78;2096857;28;20056;-72
2023/05/12 05:14:09;;;;;;;11.40;3.28;;;;;;;18.22;100.00;101264.44;2100989;28;20400;-72
2023/05/12 05:15:33;;;;;;;11.45;3.63;;;;;;;18.28;100.00;101273.28;2098599;28;20277;-71
2023/05/12 05:16:55;;;;;;;14.70;3.70;;;;;;;18.33;100.00;101273.22;2100126;28;20412;-72
2023/05/12 05:18:17;;;;;;;11.75;4.05;;;;;;;18.35;100.00;101262.53;2100894;28;20044;-72
2023/05/12 05:19:40;;;;;;;10.98;3.47;;;;;;;18.36;100.00;101275.00;2101846;28;20427;-72
2023/05/12 05:21:03;;;;;;;10.30;3.58;;;;;;;18.40;100.00;101269.63;2108589;28;20067;-71
2023/05/12 05:22:24;;;;;;;11.15;3.20;;;;;;;18.42;100.00;101269.63;2106648;28;20047;-72
2023/05/12 05:23:46;;;;;;;15.02;3.47;;;;;;;18.47;100.00;101274.00;2101701;28;20151;-71
2023/05/12 05:25:09;;;;;;;13.57;3.83;;;;;;;18.56;100.00;101273.97;2099575;28;20583;-71
2023/05/12 05:26:34;;;;;;;8.48;3.35;;;;;;;18.70;100.00;101271.19;2110665;28;20040;-72
2023/05/12 05:27:57;;;;;;;11.30;3.05;;;;;;;18.81;100.00;101273.75;2104851;28;20059;-71
2023/05/12 05:29:21;;;;;;;14.10;3.40;;;;;;;18.91;100.00;101275.41;2101476;28;20039;-71
2023/05/12 05:30:46;;;;;;;13.25;3.00;;;;;;;19.07;100.00;101274.34;2093176;28;20416;-72
2023/05/12 05:32:08;;;;;;;12.77;3.47;;;;;;;19.33;100.00;101272.25;2107111;28;20079;-72
2023/05/12 05:33:31;;;;;;;11.18;3.25;;;;;;;19.56;100.00;101273.81;2097404;28;20982;-71
2023/05/12 05:34:53;;;;;;;13.98;3.38;;;;;;;19.71;100.00;101271.78;2098125;28;20044;-72
2023/05/12 05:36:16;;;;;;;12.52;3.55;;;;;;;19.84;100.00;101273.41;2094391;28;20055;-72
2023/05/12 05:37:38;;;;;;;14.77;3.75;;;;;;;19.92;100.00;101272.41;2098592;28;20060;-72
2023/05/12 05:39:01;;;;;;;13.10;3.55;;;;;;;19.98;100.00;101275.00;2106494;28;20051;-72
2023/05/12 05:40:23;;;;;;;9.60;3.05;;;;;;;20.09;100.00;101281.06;2098873;28;20180;-71
2023/05/12 05:41:47;;;;;;;11.50;2.97;;;;;;;20.34;100.00;101266.41;2102505;28;20067;-72
2023/05/12 05:43:10;;;;;;;9.38;3.25;;;;;;;20.63;100.00;101274.84;2099122;28;20048;-72
2023/05/12 05:44:32;;;;;;;12.35;3.30;;;;;;;20.65;100.00;101272.16;2105981;28;20426;-72
2023/05/12 05:45:57;;;;;;;11.77;3.00;;;;;;;20.51;100.00;101277.75;2102137;28;20048;-72
2023/05/12 05:47:19;;;;;;;12.57;3.55;;;;;;;20.36;100.00;101280.66;2096685;28;20504;-72
2023/05/12 05:48:42;;;;;;;9.35;3.20;;;;;;;20.26;100.00;101273.66;2099401;28;20040;-72
2023/05/12 05:50:06;;;;;;;10.50;3.47;;;;;;;20.17;100.00;101279.16;2099767;28;20139;-72
2023/05/12 05:51:32;;;;;;;12.98;3.80;;;;;;;20.06;100.00;101278.44;2102091;28;20059;-71
2023/05/12 05:52:55;;;;;;;15.98;5.85;;;;;;;20.00;100.00;101273.19;2099816;28;20036;-72
2023/05/12 05:54:17;;;;;;;9.45;5.35;;;;;;;20.13;100.00;101274.78;2097906;28;20574;-71
2023/05/12 05:55:40;;;;;;;14.80;5.90;;;;;;;20.48;100.00;101271.56;2097310;28;20039;-72
2023/05/12 05:57:03;;;;;;;13.98;4.75;;;;;;;20.59;100.00;101274.94;2100325;28;20047;-71
2023/05/12 05:58:26;;;;;;;11.38;4.05;;;;;;;20.59;100.00;101273.13;2096129;28;20063;-71
2023/05/12 05:59:49;;;;;;;17.75;4.95;;;;;;;20.49;100.00;101284.91;2111084;28;20039;-72
2023/05/12 06:01:14;;;;;;;9.52;2.88;;;;;;;20.32;100.00;101284.28;2102191;28;20437;-71
2023/05/12 06:02:36;;;;;;;9.55;3.53;;;;;;;20.27;100.00;101286.16;2103005;28;20048;-71
2023/05/12 06:04:00;;;;;;;10.50;3.25;;;;;;;20.19;100.00;101288.06;2098816;28;20131;-72
2023/05/12 06:05:23;;;;;;;11.10;3.30;;;;;;;20.20;100.00;101282.69;2098872;28;20044;-71
2023/05/12 06:06:44;;;;;;;12.38;2.80;;;;;;;20.29;100.00;101287.00;2100023;28;20528;-72
2023/05/12 06:08:08;;;;;;;9.68;2.35;;;;;;;20.45;100.00;101287.69;2101825;28;20048;-72
2023/05/12 06:09:31;;;;;;;10.73;3.20;;;;;;;20.54;100.00;101283.06;2098839;28;20043;-71
2023/05/12 06:10:53;;;;;;;11.80;2.90;;;;;;;20.75;100.00;101280.91;2089118;28;20389;-71
2023/05/12 06:12:16;;;;;;;11.55;2.40;;;;;;;21.01;100.00;101287.56;2094551;28;20048;-71
2023/05/12 06:13:38;;;;;;;11.23;2.50;;;;;;;21.20;100.00;101292.63;2095632;28;20428;-71
2023/05/12 06:15:01;;;;;;;7.88;2.65;;;;;;;21.30;100.00;101275.41;2107768;28;20052;-71
2023/05/12 06:16:25;;;;;;;12.65;2.83;;;;;;;21.62;100.00;101280.09;2101039;28;20055;-71
2023/05/12 06:17:48;;;;;;;11.60;2.78;;;;;;;21.74;100.00;101282.53;2099101;28;20373;-72
2023/05/12 06:19:11;;;;;;;9.43;3.03;;;;;;;21.97;100.00;101279.38;2107392;28;20479;-71